createdAt,value
2022-11-15T00:00:09.253Z,100564.78
2022-11-15T00:02:41.760Z,100566.50
2022-11-15T00:05:14.305Z,100563.75
2022-11-15T00:07:55.514Z,100562.63
2022-11-15T00:10:28.623Z,100560.75
2022-11-15T00:13:01.124Z,100557.94
2022-11-15T00:15:37.464Z,100555.53
2022-11-15T00:18:17.206Z,100562.28
2022-11-15T00:20:49.689Z,100565.66
2022-11-15T00:23:22.347Z,100553.97
2022-11-15T00:25:59.533Z,100548.69
2022-11-15T00:28:32.109Z,100546.66
2022-11-15T00:31:08.563Z,100555.41
2022-11-15T00:33:44.428Z,100549.25
2022-11-15T00:36:17.186Z,100549.13
2022-11-15T00:38:49.750Z,100547.41
2022-11-15T00:41:22.283Z,100549.78
2022-11-15T00:43:55.020Z,100548.00
2022-11-15T00:46:27.719Z,100547.06
2022-11-15T00:49:00.221Z,100541.50
2022-11-15T00:51:32.740Z,100542.34
2022-11-15T00:54:05.320Z,100537.94
2022-11-15T00:56:37.843Z,100537.06
2022-11-15T00:59:10.317Z,100539.63
2022-11-15T01:01:42.986Z,100531.53
2022-11-15T01:04:15.525Z,100533.25
2022-11-15T01:06:48.287Z,100537.94
2022-11-15T01:09:20.930Z,100538.63
2022-11-15T01:11:53.621Z,100535.97
2022-11-15T01:14:26.238Z,100537.53
2022-11-15T01:16:58.731Z,100525.34
2022-11-15T01:19:31.324Z,100534.66
2022-11-15T01:22:03.828Z,100520.34
2022-11-15T01:24:38.779Z,100520.03
2022-11-15T01:27:11.451Z,100520.59
2022-11-15T01:29:43.948Z,100513.69
2022-11-15T01:32:16.604Z,100511.84
2022-11-15T01:34:49.148Z,100515.25
2022-11-15T01:37:21.661Z,100510.09
2022-11-15T01:39:54.214Z,100507.31
2022-11-15T01:42:26.881Z,100508.03
2022-11-15T01:44:59.420Z,100511.78
2022-11-15T01:47:41.477Z,100509.78
2022-11-15T01:50:22.591Z,100520.03
2022-11-15T01:52:56.374Z,100515.63
2022-11-15T01:55:29.671Z,100507.63
2022-11-15T01:58:06.454Z,100511.75
2022-11-15T02:00:39.130Z,100509.69
2022-11-15T02:03:11.934Z,100504.53
2022-11-15T02:05:45.431Z,100495.50
2022-11-15T02:08:20.726Z,100500.50
2022-11-15T02:10:53.324Z,100498.50
2022-11-15T02:13:26.255Z,100493.03
2022-11-15T02:16:23.200Z,100493.75
2022-11-15T02:19:35.514Z,100498.28
2022-11-15T02:22:49.020Z,100484.97
2022-11-15T02:25:32.546Z,100495.25
2022-11-15T02:28:31.923Z,100487.41
2022-11-15T02:31:29.298Z,100484.66
2022-11-15T02:34:30.292Z,100482.03
2022-11-15T02:37:39.700Z,100482.78
2022-11-15T02:40:45.709Z,100476.56
2022-11-15T02:43:53.191Z,100481.72
2022-11-15T02:46:49.382Z,100476.44
2022-11-15T02:49:25.961Z,100467.47
2022-11-15T02:51:58.520Z,100475.22
2022-11-15T02:54:34.408Z,100474.50
2022-11-15T02:57:20.236Z,100458.34
2022-11-15T03:00:01.748Z,100453.97
2022-11-15T03:03:23.106Z,100451.09
2022-11-15T03:06:09.539Z,100451.13
2022-11-15T03:09:16.040Z,100451.03
2022-11-15T03:12:01.382Z,100444.13
2022-11-15T03:14:46.273Z,100446.03
2022-11-15T03:17:31.468Z,100451.09
2022-11-15T03:20:07.508Z,100437.31
2022-11-15T03:22:45.637Z,100460.69
2022-11-15T03:25:23.831Z,100455.94
2022-11-15T03:28:04.979Z,100443.78
2022-11-15T03:30:40.856Z,100445.47
2022-11-15T03:33:13.831Z,100446.81
2022-11-15T03:35:49.401Z,100451.19
2022-11-15T03:38:27.360Z,100451.59
2022-11-15T03:41:05.782Z,100447.88
2022-11-15T03:43:50.947Z,100448.81
2022-11-15T03:47:04.241Z,100450.28
2022-11-15T03:49:45.113Z,100450.44
2022-11-15T03:52:22.838Z,100449.94
2022-11-15T03:54:57.572Z,100459.41
2022-11-15T03:57:30.200Z,100457.50
2022-11-15T04:00:05.392Z,100452.97
2022-11-15T04:02:38.240Z,100450.38
2022-11-15T04:05:10.855Z,100445.84
2022-11-15T04:07:43.453Z,100447.88
2022-11-15T04:10:17.227Z,100444.09
2022-11-15T04:12:50.168Z,100446.66
2022-11-15T04:15:24.773Z,100453.06
2022-11-15T04:17:58.618Z,100448.38
2022-11-15T04:20:51.180Z,100448.88
2022-11-15T04:23:43.120Z,100441.56
2022-11-15T04:26:21.727Z,100442.34
2022-11-15T04:29:13.356Z,100438.84
2022-11-15T04:31:45.820Z,100438.69
2022-11-15T04:34:18.347Z,100435.28
2022-11-15T04:37:09.749Z,100442.28
2022-11-15T04:39:44.138Z,100454.66
2022-11-15T04:42:16.604Z,100454.53
2022-11-15T04:44:49.080Z,100450.19
2022-11-15T04:47:21.601Z,100449.63
2022-11-15T04:49:54.165Z,100447.44
2022-11-15T04:52:26.681Z,100449.19
2022-11-15T04:55:01.401Z,100442.78
2022-11-15T04:57:38.797Z,100455.72
2022-11-15T05:00:15.785Z,100430.81
2022-11-15T05:03:06.815Z,100434.28
2022-11-15T05:05:39.468Z,100448.28
2022-11-15T05:08:11.997Z,100447.47
2022-11-15T05:10:44.496Z,100441.50
2022-11-15T05:13:17.348Z,100444.97
2022-11-15T05:15:50.075Z,100446.75
2022-11-15T05:18:23.878Z,100437.94
2022-11-15T05:20:56.811Z,100444.34
2022-11-15T05:23:29.676Z,100440.31
2022-11-15T05:26:09.177Z,100444.88
2022-11-15T05:28:42.192Z,100435.28
2022-11-15T05:31:17.396Z,100435.06
2022-11-15T05:33:52.628Z,100428.94
2022-11-15T05:36:43.466Z,100429.84
2022-11-15T05:39:16.136Z,100427.16
2022-11-15T05:42:03.354Z,100428.00
2022-11-15T05:44:40.698Z,100423.50
2022-11-15T05:47:25.337Z,100421.06
2022-11-15T05:49:58.764Z,100419.47
2022-11-15T05:52:37.969Z,100437.06
2022-11-15T05:55:11.113Z,100438.19
2022-11-15T05:57:44.062Z,100441.78
2022-11-15T06:00:17.157Z,100444.34
2022-11-15T06:02:49.865Z,100442.50
2022-11-15T06:05:22.401Z,100444.97
2022-11-15T06:07:59.973Z,100456.00
2022-11-15T06:10:33.871Z,100459.63
2022-11-15T06:13:06.842Z,100451.84
2022-11-15T06:15:39.285Z,100449.88
2022-11-15T06:18:11.774Z,100464.13
2022-11-15T06:20:44.341Z,100458.06
2022-11-15T06:23:16.956Z,100455.44
2022-11-15T06:25:49.512Z,100453.69
2022-11-15T06:28:23.060Z,100458.41
2022-11-15T06:30:55.592Z,100455.34
2022-11-15T06:33:28.137Z,100454.69
2022-11-15T06:36:05.895Z,100464.28
2022-11-15T06:38:38.414Z,100462.97
2022-11-15T06:41:12.955Z,100458.41
2022-11-15T06:43:45.471Z,100463.56
2022-11-15T06:46:18.053Z,100466.50
2022-11-15T06:48:54.605Z,100474.78
2022-11-15T06:51:27.120Z,100473.25
2022-11-15T06:53:59.737Z,100472.41
2022-11-15T06:56:32.372Z,100478.28
2022-11-15T06:59:04.903Z,100475.81
2022-11-15T07:01:37.484Z,100481.25
2022-11-15T07:04:10.054Z,100477.88
2022-11-15T07:06:42.536Z,100484.13
2022-11-15T07:09:15.979Z,100480.44
2022-11-15T07:11:48.468Z,100488.94
2022-11-15T07:14:20.976Z,100491.25
2022-11-15T07:16:53.697Z,100491.84
2022-11-15T07:19:26.181Z,100502.53
2022-11-15T07:21:58.669Z,100494.34
2022-11-15T07:24:31.171Z,100489.00
2022-11-15T07:27:03.793Z,100501.03
2022-11-15T07:29:36.412Z,100505.44
2022-11-15T07:32:10.308Z,100493.84
2022-11-15T07:34:42.897Z,100496.56
2022-11-15T07:37:15.522Z,100486.78
2022-11-15T07:39:48.066Z,100484.41
2022-11-15T07:42:39.446Z,100487.03
2022-11-15T07:45:11.930Z,100480.09
2022-11-15T07:47:47.985Z,100484.38
2022-11-15T07:50:20.755Z,100486.66
2022-11-15T07:53:00.551Z,100481.81
2022-11-15T07:55:33.116Z,100485.31
2022-11-15T07:58:09.283Z,100488.09
2022-11-15T08:00:41.755Z,100493.25
2022-11-15T08:03:17.729Z,100483.66
2022-11-15T08:05:53.454Z,100499.75
2022-11-15T08:08:26.003Z,100499.25
2022-11-15T08:10:59.642Z,100499.03
2022-11-15T08:13:32.548Z,100499.81
2022-11-15T08:16:06.546Z,100506.38
2022-11-15T08:18:39.179Z,100494.38
2022-11-15T08:21:18.630Z,100496.28
2022-11-15T08:23:51.144Z,100501.25
2022-11-15T08:26:23.824Z,100503.31
2022-11-15T08:28:56.463Z,100498.78
2022-11-15T08:31:28.992Z,100492.16
2022-11-15T08:34:02.178Z,100488.47
2022-11-15T08:36:43.007Z,100481.66
2022-11-15T08:39:18.354Z,100472.44
2022-11-15T08:41:50.901Z,100481.34
2022-11-15T08:44:24.913Z,100479.00
2022-11-15T08:46:57.559Z,100470.91
2022-11-15T08:49:30.079Z,100464.00
2022-11-15T08:52:02.591Z,100466.47
2022-11-15T08:54:35.120Z,100459.25
2022-11-15T08:57:08.106Z,100457.88
2022-11-15T08:59:40.628Z,100464.03
2022-11-15T09:02:15.561Z,100455.00
2022-11-15T09:04:49.045Z,100460.16
2022-11-15T09:07:23.748Z,100452.78
2022-11-15T09:09:56.514Z,100432.72
2022-11-15T09:12:32.458Z,100436.75
2022-11-15T09:15:07.366Z,100440.44
2022-11-15T09:17:39.853Z,100430.81
2022-11-15T09:20:12.711Z,100431.34
2022-11-15T09:22:47.357Z,100423.69
2022-11-15T09:25:19.893Z,100431.50
2022-11-15T09:28:00.136Z,100431.31
2022-11-15T09:30:37.040Z,100429.56
2022-11-15T09:33:12.325Z,100425.38
2022-11-15T09:35:44.983Z,100424.53
2022-11-15T09:38:21.697Z,100423.38
2022-11-15T09:41:12.581Z,100426.03
2022-11-15T09:43:58.184Z,100415.16
2022-11-15T09:47:02.368Z,100418.97
2022-11-15T09:49:35.040Z,100420.22
2022-11-15T09:52:14.299Z,100415.84
2022-11-15T09:54:53.796Z,100421.63
2022-11-15T09:57:46.061Z,100402.19
2022-11-15T10:00:47.579Z,100408.34
2022-11-15T10:03:37.032Z,100416.97
2022-11-15T10:06:24.307Z,100428.56
2022-11-15T10:09:08.307Z,100417.06
2022-11-15T10:11:44.760Z,100419.09
2022-11-15T10:14:26.371Z,100410.78
2022-11-15T10:17:32.822Z,100403.66
2022-11-15T10:20:21.458Z,100420.19
2022-11-15T10:23:01.986Z,100400.50
2022-11-15T10:25:35.779Z,100402.13
2022-11-15T10:28:28.855Z,100394.06
2022-11-15T10:31:02.345Z,100397.72
2022-11-15T10:33:40.022Z,100398.16
2022-11-15T10:36:12.401Z,100384.28
2022-11-15T10:38:50.768Z,100383.53
2022-11-15T10:41:45.971Z,100377.88
2022-11-15T10:44:31.500Z,100368.06
2022-11-15T10:47:03.930Z,100360.50
2022-11-15T10:49:36.678Z,100355.28
2022-11-15T10:52:21.215Z,100359.28
2022-11-15T10:55:08.252Z,100363.47
2022-11-15T10:57:49.027Z,100355.50
2022-11-15T11:00:21.435Z,100353.84
2022-11-15T11:02:56.949Z,100343.44
2022-11-15T11:05:42.271Z,100350.41
2022-11-15T11:08:15.411Z,100341.53
2022-11-15T11:11:03.593Z,100337.78
2022-11-15T11:13:40.933Z,100332.66
2022-11-15T11:16:23.200Z,100332.94
2022-11-15T11:19:19.369Z,100318.28
2022-11-15T11:22:30.776Z,100314.81
2022-11-15T11:25:41.934Z,100309.69
2022-11-15T11:28:37.654Z,100302.44
2022-11-15T11:31:42.515Z,100291.03
2022-11-15T11:34:20.995Z,100288.47
2022-11-15T11:37:06.192Z,100286.81
2022-11-15T11:40:30.116Z,100277.00
2022-11-15T11:43:11.577Z,100277.97
2022-11-15T11:46:23.457Z,100268.34
2022-11-15T11:49:39.578Z,100270.00
2022-11-15T11:52:28.608Z,100259.47
2022-11-15T11:55:39.542Z,100249.91
2022-11-15T11:58:34.876Z,100246.53
2022-11-15T12:01:44.528Z,100236.59
2022-11-15T12:04:36.441Z,100242.47
2022-11-15T12:07:20.291Z,100230.59
2022-11-15T12:10:03.917Z,100217.53
2022-11-15T12:12:50.011Z,100223.63
2022-11-15T12:15:51.171Z,100223.75
2022-11-15T12:18:23.748Z,100214.44
2022-11-15T12:21:44.456Z,100210.31
2022-11-15T12:24:30.896Z,100197.75
2022-11-15T12:27:20.524Z,100196.28
2022-11-15T12:30:02.084Z,100187.84
2022-11-15T12:32:49.266Z,100190.97
2022-11-15T12:35:43.599Z,100180.91
2022-11-15T12:39:03.649Z,100188.63
2022-11-15T12:42:04.667Z,100177.88
2022-11-15T12:44:38.452Z,100173.59
2022-11-15T12:47:10.857Z,100166.78
2022-11-15T12:49:46.465Z,100160.25
2022-11-15T12:52:19.818Z,100158.47
2022-11-15T12:54:59.545Z,100150.91
2022-11-15T12:57:37.196Z,100148.53
2022-11-15T13:00:15.609Z,100135.91
2022-11-15T13:02:49.399Z,100134.00
2022-11-15T13:05:44.693Z,100126.69
2022-11-15T13:08:41.817Z,100116.34
2022-11-15T13:11:52.341Z,100114.13
2022-11-15T13:14:55.455Z,100106.44
2022-11-15T13:17:36.135Z,100107.59
2022-11-15T13:20:08.483Z,100105.09
2022-11-15T13:22:55.648Z,100097.91
2022-11-15T13:25:37.200Z,100100.72
2022-11-15T13:28:15.594Z,100091.28
2022-11-15T13:30:47.991Z,100091.03
2022-11-15T13:33:35.882Z,100088.97
2022-11-15T13:36:20.956Z,100082.84
2022-11-15T13:39:13.228Z,100067.72
2022-11-15T13:41:50.266Z,100069.31
2022-11-15T13:44:33.322Z,100062.78
2022-11-15T13:47:13.541Z,100062.63
2022-11-15T13:49:46.047Z,100054.50
2022-11-15T13:52:18.721Z,100052.28
2022-11-15T13:55:14.218Z,100040.69
2022-11-15T13:57:52.546Z,100038.25
2022-11-15T14:00:45.760Z,100035.16
2022-11-15T14:03:18.266Z,100028.94
2022-11-15T14:06:16.845Z,100030.03
2022-11-15T14:09:26.339Z,100029.69
2022-11-15T14:11:59.116Z,100015.09
2022-11-15T14:14:31.747Z,100011.09
2022-11-15T14:17:04.311Z,100007.53
2022-11-15T14:19:40.466Z,99994.78
2022-11-15T14:22:17.142Z,100000.06
2022-11-15T14:25:16.009Z,99998.97
2022-11-15T14:28:19.466Z,99990.28
2022-11-15T14:30:56.156Z,99983.72
2022-11-15T14:33:40.060Z,99981.16
2022-11-15T14:36:20.811Z,99977.47
2022-11-15T14:38:55.122Z,99978.78
2022-11-15T14:41:27.821Z,99965.25
2022-11-15T14:44:00.700Z,99959.31
2022-11-15T14:46:33.254Z,99962.53
2022-11-15T14:49:05.810Z,99954.13
2022-11-15T14:51:38.278Z,99946.06
2022-11-15T14:54:11.676Z,99946.00
2022-11-15T14:56:44.157Z,99933.84
2022-11-15T14:59:16.625Z,99933.28
2022-11-15T15:01:49.089Z,99926.00
2022-11-15T15:04:21.538Z,99924.16
2022-11-15T15:06:54.142Z,99921.56
2022-11-15T15:09:26.680Z,99911.75
2022-11-15T15:12:04.884Z,99917.75
2022-11-15T15:14:38.658Z,99907.34
2022-11-15T15:17:11.369Z,99909.44
2022-11-15T15:19:44.189Z,99898.59
2022-11-15T15:22:19.805Z,99909.44
2022-11-15T15:24:52.526Z,99897.56
2022-11-15T15:27:25.078Z,99896.22
2022-11-15T15:29:57.544Z,99895.72
2022-11-15T15:32:30.004Z,99894.28
2022-11-15T15:35:02.493Z,99887.06
2022-11-15T15:37:35.519Z,99876.91
2022-11-15T15:40:21.056Z,99881.34
2022-11-15T15:42:53.587Z,99879.31
2022-11-15T15:45:28.259Z,99885.00
2022-11-15T15:48:00.735Z,99869.63
2022-11-15T15:50:35.685Z,99885.81
2022-11-15T15:53:08.997Z,99880.50
2022-11-15T15:55:41.882Z,99882.22
2022-11-15T15:58:14.349Z,99880.41
2022-11-15T16:00:46.853Z,99875.53
2022-11-15T16:03:19.400Z,99880.34
2022-11-15T16:05:52.579Z,99872.94
2022-11-15T16:08:31.917Z,99872.50
2022-11-15T16:11:11.135Z,99876.25
2022-11-15T16:13:43.621Z,99875.44
2022-11-15T16:16:22.778Z,99870.28
2022-11-15T16:18:55.407Z,99870.19
2022-11-15T16:21:28.848Z,99876.78
2022-11-15T16:24:02.331Z,99876.22
2022-11-15T16:26:37.574Z,99878.03
2022-11-15T16:29:11.304Z,99880.16
2022-11-15T16:31:43.764Z,99885.50
2022-11-15T16:34:16.229Z,99888.13
2022-11-15T16:36:49.109Z,99874.38
2022-11-15T16:39:23.392Z,99871.72
2022-11-15T16:41:55.937Z,99873.75
2022-11-15T16:44:29.235Z,99871.78
2022-11-15T16:47:02.361Z,99875.16
2022-11-15T16:49:34.865Z,99879.94
2022-11-15T16:52:07.335Z,99866.47
2022-11-15T16:54:39.855Z,99860.06
2022-11-15T16:57:12.352Z,99869.25
2022-11-15T16:59:44.818Z,99870.97
2022-11-15T17:02:17.337Z,99869.38
2022-11-15T17:04:49.859Z,99876.53
2022-11-15T17:07:22.483Z,99874.59
2022-11-15T17:09:55.065Z,99868.94
2022-11-15T17:12:27.695Z,99865.94
2022-11-15T17:15:00.256Z,99862.22
2022-11-15T17:17:33.148Z,99859.53
2022-11-15T17:20:10.009Z,99853.06
2022-11-15T17:22:42.719Z,99850.25
2022-11-15T17:25:15.367Z,99845.88
2022-11-15T17:27:48.349Z,99848.41
2022-11-15T17:30:20.837Z,99848.69
2022-11-15T17:32:53.398Z,99839.13
2022-11-15T17:35:26.062Z,99840.97
2022-11-15T17:37:58.577Z,99839.94
2022-11-15T17:40:31.197Z,99839.13
2022-11-15T17:43:06.285Z,99844.47
2022-11-15T17:45:42.244Z,99833.34
2022-11-15T17:48:14.638Z,99840.38
2022-11-15T17:51:04.752Z,99835.00
2022-11-15T17:53:40.511Z,99844.09
2022-11-15T17:56:19.762Z,99827.41
2022-11-15T17:58:58.998Z,99828.63
2022-11-15T18:01:34.741Z,99830.91
2022-11-15T18:04:10.014Z,99830.16
2022-11-15T18:06:43.023Z,99818.84
2022-11-15T18:09:15.504Z,99823.41
2022-11-15T18:11:51.509Z,99813.41
2022-11-15T18:14:26.029Z,99816.63
2022-11-15T18:16:58.522Z,99811.00
2022-11-15T18:19:31.021Z,99808.47
2022-11-15T18:22:05.458Z,99811.38
2022-11-15T18:24:42.848Z,99808.03
2022-11-15T18:27:15.364Z,99806.03
2022-11-15T18:29:47.867Z,99798.06
2022-11-15T18:32:20.377Z,99796.34
2022-11-15T18:34:53.543Z,99779.03
2022-11-15T18:37:26.105Z,99783.78
2022-11-15T18:39:58.556Z,99777.56
2022-11-15T18:42:32.977Z,99776.69
2022-11-15T18:45:06.421Z,99788.69
2022-11-15T18:47:38.897Z,99780.38
2022-11-15T18:50:11.403Z,99776.59
2022-11-15T18:52:43.874Z,99779.25
2022-11-15T18:55:16.370Z,99777.53
2022-11-15T18:57:48.887Z,99778.31
2022-11-15T19:00:21.437Z,99791.06
2022-11-15T19:02:54.798Z,99780.72
2022-11-15T19:05:27.381Z,99779.94
2022-11-15T19:07:59.848Z,99786.47
2022-11-15T19:10:34.586Z,99775.69
2022-11-15T19:13:07.040Z,99775.59
2022-11-15T19:15:39.546Z,99772.28
2022-11-15T19:18:12.034Z,99769.41
2022-11-15T19:20:44.581Z,99764.84
2022-11-15T19:23:17.197Z,99763.19
2022-11-15T19:26:01.592Z,99768.16
2022-11-15T19:28:34.345Z,99762.94
2022-11-15T19:31:15.875Z,99759.88
2022-11-15T19:33:48.471Z,99757.28
2022-11-15T19:36:32.457Z,99742.56
2022-11-15T19:39:10.018Z,99752.72
2022-11-15T19:41:44.331Z,99745.00
2022-11-15T19:44:18.233Z,99747.50
2022-11-15T19:46:50.817Z,99740.94
2022-11-15T19:49:23.503Z,99747.38
2022-11-15T19:51:56.380Z,99743.78
2022-11-15T19:54:28.918Z,99739.25
2022-11-15T19:57:01.482Z,99735.03
2022-11-15T19:59:34.028Z,99741.78
2022-11-15T20:02:07.250Z,99743.28
2022-11-15T20:04:39.911Z,99741.63
2022-11-15T20:07:12.562Z,99739.13
2022-11-15T20:09:45.228Z,99735.50
2022-11-15T20:12:17.921Z,99730.19
2022-11-15T20:14:50.495Z,99727.13
2022-11-15T20:17:23.893Z,99731.84
2022-11-15T20:19:56.513Z,99727.06
2022-11-15T20:22:29.072Z,99722.09
2022-11-15T20:25:01.673Z,99723.03
2022-11-15T20:27:34.250Z,99724.66
2022-11-15T20:30:07.880Z,99714.66
2022-11-15T20:32:40.478Z,99715.44
2022-11-15T20:35:13.191Z,99707.34
2022-11-15T20:37:45.775Z,99697.81
2022-11-15T20:40:18.506Z,99700.81
2022-11-15T20:42:54.311Z,99701.34
2022-11-15T20:45:26.978Z,99712.34
2022-11-15T20:47:59.553Z,99696.63
2022-11-15T20:50:47.442Z,99700.53
2022-11-15T20:53:20.368Z,99697.34
2022-11-15T20:55:54.918Z,99688.06
2022-11-15T20:58:30.175Z,99693.66
2022-11-15T21:01:05.712Z,99693.56
2022-11-15T21:03:38.459Z,99696.44
2022-11-15T21:06:11.883Z,99684.50
2022-11-15T21:09:03.189Z,99686.72
2022-11-15T21:11:54.712Z,99684.31
2022-11-15T21:14:27.293Z,99676.00
2022-11-15T21:16:59.937Z,99676.19
2022-11-15T21:19:35.792Z,99680.66
2022-11-15T21:22:14.005Z,99673.97
2022-11-15T21:24:46.750Z,99669.88
2022-11-15T21:27:19.491Z,99672.34
2022-11-15T21:29:52.156Z,99667.78
2022-11-15T21:32:24.796Z,99675.16
2022-11-15T21:34:57.420Z,99668.00
2022-11-15T21:37:29.908Z,99665.03
2022-11-15T21:40:02.973Z,99662.69
2022-11-15T21:42:35.509Z,99652.19
2022-11-15T21:45:08.716Z,99651.38
2022-11-15T21:47:46.054Z,99649.88
2022-11-15T21:50:19.698Z,99646.16
2022-11-15T21:52:55.484Z,99645.16
2022-11-15T21:55:29.965Z,99638.19
2022-11-15T21:58:02.723Z,99642.50
2022-11-15T22:00:54.702Z,99636.97
2022-11-15T22:03:27.356Z,99625.41
2022-11-15T22:06:07.540Z,99632.59
2022-11-15T22:08:40.522Z,99635.84
2022-11-15T22:11:14.553Z,99629.84
2022-11-15T22:13:47.416Z,99631.47
2022-11-15T22:16:22.371Z,99616.63
2022-11-15T22:19:03.421Z,99614.25
2022-11-15T22:21:40.173Z,99615.88
2022-11-15T22:24:18.297Z,99618.41
2022-11-15T22:26:56.963Z,99618.53
2022-11-15T22:29:32.071Z,99607.63
2022-11-15T22:32:11.607Z,99605.13
2022-11-15T22:34:48.568Z,99600.03
2022-11-15T22:37:25.770Z,99596.97
2022-11-15T22:40:00.430Z,99595.81
2022-11-15T22:42:35.104Z,99590.06
2022-11-15T22:45:08.250Z,99594.66
2022-11-15T22:47:44.149Z,99588.22
2022-11-15T22:50:17.239Z,99590.00
2022-11-15T22:52:55.671Z,99584.97
2022-11-15T22:55:32.874Z,99585.56
2022-11-15T22:58:11.592Z,99583.56
2022-11-15T23:00:44.438Z,99580.31
2022-11-15T23:03:18.042Z,99580.47
2022-11-15T23:05:51.646Z,99583.97
2022-11-15T23:08:24.278Z,99578.59
2022-11-15T23:11:19.840Z,99576.22
2022-11-15T23:13:53.689Z,99573.25
2022-11-15T23:19:20.749Z,99581.69
2022-11-15T23:22:12.122Z,99585.16
2022-11-15T23:24:44.671Z,99580.47
2022-11-15T23:27:20.095Z,99578.69
2022-11-15T23:30:20.388Z,99578.41
2022-11-15T23:33:11.435Z,99580.97
2022-11-15T23:35:56.844Z,99581.41
2022-11-15T23:38:29.777Z,99579.53
2022-11-15T23:41:04.483Z,99584.66
2022-11-15T23:43:37.151Z,99578.31
2022-11-15T23:46:09.845Z,99572.59
2022-11-15T23:48:42.537Z,99582.03
2022-11-15T23:51:15.137Z,99575.66
2022-11-15T23:53:47.811Z,99573.09
2022-11-15T23:56:22.005Z,99576.75
2022-11-15T23:58:54.677Z,99569.34
